Glen Park, New York
Current Conditions -  °F | °C
As of 8:56 PM on Wednesday 26 Nov 2014 (Local Time) from KART Reporting Station
Haze Haze  
Wind Chill: 21°   Ceiling: 5000
Heat Index: 30°   Visibility: 6mi
Dew Point: 22°   Wind: 10mph
Humidity: 72%   Direction: 40°NE
Pressure: 30.05"   Gusts: NA
Location:  43.9663°N, 75.9119°W
Report Text: KART 270156Z AUTO 04009KT 6SM HZ OVC050 M01/M06 A3005 RMK AO2 SNE0057B14E53 SLP180 P0000 T10111056
Loading
Personal Weather Stations






























Interactive Weather Map New forecast layout! Learn more

10-Day Weather Forecast

Advertisements
Track Severe Weather on mobile